This is the latest recevied weather packets stored in our database for station/object WD7CGF. If no packets are shown the sender has not sent any weather packets the latest 10 day(s).
| Time | Temp. | Humidity | Pressure | Rain* | Wind** | Luminosity | Snow |
|---|---|---|---|---|---|---|---|
| 1777662508 | 21.11° C | 43% | 1016.8 hPa | 0 mm | - | - | - |
| 1777661899 | 20.56° C | 44% | 1016.2 hPa | 0 mm | - | - | - |
| 1777661307 | 20° C | 44% | 1016.2 hPa | 0 mm | - | - | - |
| 1777660690 | 19.44° C | 45% | 1016.4 hPa | 0 mm | - | - | - |
| 1777660099 | 18.89° C | 47% | 1016.5 hPa | 0 mm | - | - | - |
| 1777659489 | 18.33° C | 48% | 1016.5 hPa | 0 mm | - | - | - |
| 1777658898 | 18.33° C | 46% | 1016.6 hPa | 0 mm | - | - | - |
| 1777658290 | 17.78° C | 49% | 1016.8 hPa | 0 mm | - | - | - |
| 1777657694 | 17.22° C | 51% | 1016.8 hPa | 0 mm | - | - | - |
| 1777657102 | 16.67° C | 54% | 1017.1 hPa | 0 mm | - | - | - |
| 1777656508 | 15.56° C | 54% | 1017.2 hPa | 0 mm | - | - | - |
| 1777655892 | 15.56° C | 53% | 1017.2 hPa | 0 mm | - | - | - |
| 1777655301 | 15° C | 57% | 1017.2 hPa | 0 mm | - | - | - |
| 1777654691 | 13.89° C | 59% | 1017.4 hPa | 0 mm | - | - | - |
| 1777654102 | 13.89° C | 60% | 1017.4 hPa | 0 mm | - | - | - |
| 1777653491 | 13.33° C | 60% | 1017.6 hPa | 0 mm | - | - | - |
| 1777652906 | 13.33° C | 60% | 1017.6 hPa | 0 mm | - | - | - |
| 1777652294 | 13.33° C | 60% | 1017.6 hPa | 0 mm | - | - | - |
| 1777651703 | 13.89° C | 61% | 1018.3 hPa | 0 mm | - | - | - |
| 1777651095 | 13.33° C | 63% | 1017.7 hPa | 0 mm | - | - | - |
| 1777650503 | 12.78° C | 64% | 1017.7 hPa | 0 mm | - | - | - |
| 1777649891 | 11.67° C | 67% | 1017.9 hPa | 0 mm | - | - | - |
| 1777649302 | 10.56° C | 70% | 1018 hPa | 0 mm | - | - | - |
| 1777648108 | 10° C | 70% | 1018.6 hPa | 0 mm | - | - | - |
| 1777647498 | 8.89° C | 75% | 1017.9 hPa | 0 mm | - | - | - |
* Rain since midnight (hover to see other rain measurements)
** Current wind speed in m/s (hover to see current wind gust speed)